sensor_id;sensor_type;location;lat;lon;timestamp;pressure;altitude;pressure_sealevel;temperature;humidity
16690;BME280;8458;52.220;9.884;2023-05-12T00:01:11;100812.97;;;13.98;100.00
16690;BME280;8458;52.220;9.884;2023-05-12T00:03:39;100819.94;;;14.01;100.00
16690;BME280;8458;52.220;9.884;2023-05-12T00:06:06;100812.69;;;13.94;100.00
16690;BME280;8458;52.220;9.884;2023-05-12T00:08:32;100815.78;;;13.93;100.00
16690;BME280;8458;52.220;9.884;2023-05-12T00:11:00;100814.63;;;13.94;100.00
16690;BME280;8458;52.220;9.884;2023-05-12T00:13:26;100811.59;;;13.90;100.00
16690;BME280;8458;52.220;9.884;2023-05-12T00:15:53;100810.19;;;13.88;100.00
16690;BME280;8458;52.220;9.884;2023-05-12T00:18:20;100814.38;;;13.90;100.00
16690;BME280;8458;52.220;9.884;2023-05-12T00:20:48;100820.78;;;13.91;100.00
16690;BME280;8458;52.220;9.884;2023-05-12T00:23:15;100817.44;;;13.89;100.00
16690;BME280;8458;52.220;9.884;2023-05-12T00:25:41;100815.19;;;13.91;100.00
16690;BME280;8458;52.220;9.884;2023-05-12T00:28:08;100816.63;;;13.88;100.00
16690;BME280;8458;52.220;9.884;2023-05-12T00:30:34;100815.78;;;13.88;100.00
16690;BME280;8458;52.220;9.884;2023-05-12T00:33:01;100821.38;;;13.83;100.00
16690;BME280;8458;52.220;9.884;2023-05-12T00:35:27;100822.19;;;13.83;100.00
16690;BME280;8458;52.220;9.884;2023-05-12T00:37:55;100824.16;;;13.83;100.00
16690;BME280;8458;52.220;9.884;2023-05-12T00:40:22;100831.97;;;13.80;100.00
16690;BME280;8458;52.220;9.884;2023-05-12T00:42:48;100825.59;;;13.70;100.00
16690;BME280;8458;52.220;9.884;2023-05-12T00:45:15;100839.25;;;13.71;100.00
16690;BME280;8458;52.220;9.884;2023-05-12T00:47:42;100833.09;;;13.69;100.00
16690;BME280;8458;52.220;9.884;2023-05-12T00:50:09;100838.09;;;13.72;100.00
16690;BME280;8458;52.220;9.884;2023-05-12T00:52:36;100834.50;;;13.72;100.00
16690;BME280;8458;52.220;9.884;2023-05-12T00:55:04;100833.09;;;13.74;100.00
16690;BME280;8458;52.220;9.884;2023-05-12T00:57:32;100828.63;;;13.78;100.00
16690;BME280;8458;52.220;9.884;2023-05-12T00:59:58;100828.06;;;13.81;100.00
16690;BME280;8458;52.220;9.884;2023-05-12T01:02:25;100823.63;;;13.80;100.00
16690;BME280;8458;52.220;9.884;2023-05-12T01:04:51;100818.31;;;13.84;100.00
16690;BME280;8458;52.220;9.884;2023-05-12T01:07:20;100831.94;;;13.86;100.00
16690;BME280;8458;52.220;9.884;2023-05-12T01:09:52;100833.63;;;13.81;100.00
16690;BME280;8458;52.220;9.884;2023-05-12T01:12:19;100831.69;;;13.82;100.00
16690;BME280;8458;52.220;9.884;2023-05-12T01:14:46;100839.19;;;13.81;100.00
16690;BME280;8458;52.220;9.884;2023-05-12T01:17:16;100835.31;;;13.83;100.00
16690;BME280;8458;52.220;9.884;2023-05-12T01:19:46;100834.47;;;13.82;100.00
16690;BME280;8458;52.220;9.884;2023-05-12T01:22:14;100837.25;;;13.82;100.00
16690;BME280;8458;52.220;9.884;2023-05-12T01:24:45;100833.66;;;13.76;100.00
16690;BME280;8458;52.220;9.884;2023-05-12T01:27:15;100834.22;;;13.68;100.00
16690;BME280;8458;52.220;9.884;2023-05-12T01:29:43;100835.31;;;13.72;100.00
16690;BME280;8458;52.220;9.884;2023-05-12T01:32:11;100840.34;;;13.70;100.00
16690;BME280;8458;52.220;9.884;2023-05-12T01:34:37;100838.69;;;13.74;100.00
16690;BME280;8458;52.220;9.884;2023-05-12T01:37:06;100853.16;;;13.76;100.00
16690;BME280;8458;52.220;9.884;2023-05-12T01:39:33;100855.94;;;13.76;100.00
16690;BME280;8458;52.220;9.884;2023-05-12T01:41:59;100853.16;;;13.76;100.00
16690;BME280;8458;52.220;9.884;2023-05-12T01:44:27;100855.38;;;13.79;100.00
16690;BME280;8458;52.220;9.884;2023-05-12T01:46:54;100849.25;;;13.77;100.00
16690;BME280;8458;52.220;9.884;2023-05-12T01:49:20;100853.69;;;13.78;100.00
16690;BME280;8458;52.220;9.884;2023-05-12T01:51:47;100850.34;;;13.81;100.00
16690;BME280;8458;52.220;9.884;2023-05-12T01:54:14;100852.59;;;13.79;100.00
16690;BME280;8458;52.220;9.884;2023-05-12T01:56:40;100848.97;;;13.74;100.00
16690;BME280;8458;52.220;9.884;2023-05-12T01:59:07;100843.13;;;13.75;100.00
16690;BME280;8458;52.220;9.884;2023-05-12T02:01:35;100840.03;;;13.77;100.00
16690;BME280;8458;52.220;9.884;2023-05-12T02:04:01;100845.06;;;13.75;100.00
16690;BME280;8458;52.220;9.884;2023-05-12T02:06:29;100850.38;;;13.76;100.00
16690;BME280;8458;52.220;9.884;2023-05-12T02:08:56;100858.72;;;13.76;100.00
16690;BME280;8458;52.220;9.884;2023-05-12T02:11:23;100854.84;;;13.77;100.00
16690;BME280;8458;52.220;9.884;2023-05-12T02:13:49;100860.41;;;13.77;100.00
16690;BME280;8458;52.220;9.884;2023-05-12T02:16:16;100859.84;;;13.80;100.00
16690;BME280;8458;52.220;9.884;2023-05-12T02:18:44;100857.63;;;13.77;100.00
16690;BME280;8458;52.220;9.884;2023-05-12T02:21:11;100858.72;;;13.76;100.00
16690;BME280;8458;52.220;9.884;2023-05-12T02:23:37;100860.97;;;13.74;100.00
16690;BME280;8458;52.220;9.884;2023-05-12T02:26:04;100852.06;;;13.77;100.00
16690;BME280;8458;52.220;9.884;2023-05-12T02:28:30;100856.50;;;13.73;100.00
16690;BME280;8458;52.220;9.884;2023-05-12T02:30:57;100868.75;;;13.72;100.00
16690;BME280;8458;52.220;9.884;2023-05-12T02:33:24;100855.97;;;13.71;100.00
16690;BME280;8458;52.220;9.884;2023-05-12T02:35:52;100859.84;;;13.70;100.00
16690;BME280;8458;52.220;9.884;2023-05-12T02:38:18;100863.47;;;13.71;100.00
16690;BME280;8458;52.220;9.884;2023-05-12T02:40:45;100859.84;;;13.70;100.00
16690;BME280;8458;52.220;9.884;2023-05-12T02:43:12;100851.22;;;13.72;100.00
16690;BME280;8458;52.220;9.884;2023-05-12T02:45:39;100850.41;;;13.71;100.00
16690;BME280;8458;52.220;9.884;2023-05-12T02:48:05;100855.09;;;13.71;100.00
16690;BME280;8458;52.220;9.884;2023-05-12T02:50:32;100855.97;;;13.71;100.00
16690;BME280;8458;52.220;9.884;2023-05-12T02:52:59;100847.03;;;13.69;100.00
16690;BME280;8458;52.220;9.884;2023-05-12T02:55:26;100859.88;;;13.65;100.00
16690;BME280;8458;52.220;9.884;2023-05-12T02:57:54;100866.00;;;13.67;100.00
16690;BME280;8458;52.220;9.884;2023-05-12T03:00:20;100872.69;;;13.61;100.00
16690;BME280;8458;52.220;9.884;2023-05-12T03:02:47;100857.91;;;13.55;100.00
16690;BME280;8458;52.220;9.884;2023-05-12T03:05:13;100877.69;;;13.54;100.00
16690;BME280;8458;52.220;9.884;2023-05-12T03:07:40;100878.25;;;13.51;100.00
16690;BME280;8458;52.220;9.884;2023-05-12T03:10:09;100862.13;;;13.53;100.00
16690;BME280;8458;52.220;9.884;2023-05-12T03:12:35;100859.03;;;13.49;100.00
16690;BME280;8458;52.220;9.884;2023-05-12T03:15:03;100855.97;;;13.51;100.00
16690;BME280;8458;52.220;9.884;2023-05-12T03:17:29;100864.91;;;13.48;100.00
16690;BME280;8458;52.220;9.884;2023-05-12T03:19:56;100862.94;;;13.53;100.00
16690;BME280;8458;52.220;9.884;2023-05-12T03:22:22;100860.16;;;13.53;100.00
16690;BME280;8458;52.220;9.884;2023-05-12T03:24:49;100866.00;;;13.57;100.00
16690;BME280;8458;52.220;9.884;2023-05-12T03:27:17;100856.28;;;13.54;100.00
16690;BME280;8458;52.220;9.884;2023-05-12T03:29:43;100855.44;;;13.59;100.00
16690;BME280;8458;52.220;9.884;2023-05-12T03:32:10;100863.78;;;13.59;100.00
16690;BME280;8458;52.220;9.884;2023-05-12T03:34:36;100867.94;;;13.61;100.00
16690;BME280;8458;52.220;9.884;2023-05-12T03:37:03;100865.44;;;13.60;100.00
16690;BME280;8458;52.220;9.884;2023-05-12T03:39:29;100862.94;;;13.58;100.00
16690;BME280;8458;52.220;9.884;2023-05-12T03:41:56;100859.88;;;13.60;100.00
16690;BME280;8458;52.220;9.884;2023-05-12T03:44:24;100862.09;;;13.58;100.00
16690;BME280;8458;52.220;9.884;2023-05-12T03:46:50;100878.25;;;13.61;100.00
16690;BME280;8458;52.220;9.884;2023-05-12T03:49:16;100890.22;;;13.61;100.00
16690;BME280;8458;52.220;9.884;2023-05-12T03:51:43;100876.59;;;13.50;100.00
16690;BME280;8458;52.220;9.884;2023-05-12T03:54:09;100886.63;;;13.35;100.00
16690;BME280;8458;52.220;9.884;2023-05-12T03:56:36;100892.78;;;13.37;100.00
16690;BME280;8458;52.220;9.884;2023-05-12T03:59:02;100889.97;;;13.37;100.00
16690;BME280;8458;52.220;9.884;2023-05-12T04:01:30;100896.09;;;13.44;100.00
16690;BME280;8458;52.220;9.884;2023-05-12T04:03:57;100896.09;;;13.44;100.00
16690;BME280;8458;52.220;9.884;2023-05-12T04:06:23;100901.94;;;13.43;100.00
16690;BME280;8458;52.220;9.884;2023-05-12T04:08:49;100901.38;;;13.46;100.00
16690;BME280;8458;52.220;9.884;2023-05-12T04:11:16;100901.09;;;13.48;100.00
16690;BME280;8458;52.220;9.884;2023-05-12T04:13:42;100899.47;;;13.47;100.00
16690;BME280;8458;52.220;9.884;2023-05-12T04:16:09;100894.44;;;13.49;100.00
16690;BME280;8458;52.220;9.884;2023-05-12T04:18:36;100899.44;;;13.52;100.00
16690;BME280;8458;52.220;9.884;2023-05-12T04:21:03;100905.56;;;13.49;100.00
16690;BME280;8458;52.220;9.884;2023-05-12T04:23:30;100913.38;;;13.52;100.00
16690;BME280;8458;52.220;9.884;2023-05-12T04:25:56;100916.16;;;13.52;100.00
16690;BME280;8458;52.220;9.884;2023-05-12T04:28:23;100921.16;;;13.55;100.00
16690;BME280;8458;52.220;9.884;2023-05-12T04:30:49;100916.72;;;13.59;100.00
16690;BME280;8458;52.220;9.884;2023-05-12T04:33:16;100927.31;;;13.62;100.00
16690;BME280;8458;52.220;9.884;2023-05-12T04:35:43;100928.41;;;13.61;100.00
16690;BME280;8458;52.220;9.884;2023-05-12T04:38:10;100933.97;;;13.61;100.00
16690;BME280;8458;52.220;9.884;2023-05-12T04:40:36;100940.66;;;13.60;100.00
16690;BME280;8458;52.220;9.884;2023-05-12T04:43:03;100935.66;;;13.62;100.00
16690;BME280;8458;52.220;9.884;2023-05-12T04:45:29;100928.41;;;13.61;100.00
16690;BME280;8458;52.220;9.884;2023-05-12T04:47:56;100933.97;;;13.61;100.00
16690;BME280;8458;52.220;9.884;2023-05-12T04:50:22;100931.75;;;13.63;100.00
16690;BME280;8458;52.220;9.884;2023-05-12T04:52:50;100939.81;;;13.65;100.00
16690;BME280;8458;52.220;9.884;2023-05-12T04:55:16;100929.53;;;13.65;100.00
16690;BME280;8458;52.220;9.884;2023-05-12T04:57:43;100933.44;;;13.64;100.00
16690;BME280;8458;52.220;9.884;2023-05-12T05:00:10;100942.59;;;13.65;100.00
16690;BME280;8458;52.220;9.884;2023-05-12T05:02:37;100948.75;;;13.67;100.00
16690;BME280;8458;52.220;9.884;2023-05-12T05:05:05;100947.63;;;13.68;100.00
16690;BME280;8458;52.220;9.884;2023-05-12T05:07:31;100947.34;;;13.69;100.00
16690;BME280;8458;52.220;9.884;2023-05-12T05:09:59;100956.84;;;13.68;100.00
16690;BME280;8458;52.220;9.884;2023-05-12T05:12:25;100952.34;;;13.72;100.00
16690;BME280;8458;52.220;9.884;2023-05-12T05:14:52;100955.72;;;13.74;100.00
16690;BME280;8458;52.220;9.884;2023-05-12T05:17:18;100953.47;;;13.76;100.00
16690;BME280;8458;52.220;9.884;2023-05-12T05:19:45;100946.25;;;13.80;100.00
16690;BME280;8458;52.220;9.884;2023-05-12T05:22:11;100965.19;;;13.84;100.00
16690;BME280;8458;52.220;9.884;2023-05-12T05:24:38;100955.13;;;13.88;100.00
16690;BME280;8458;52.220;9.884;2023-05-12T05:27:05;100963.22;;;13.89;100.00
16690;BME280;8458;52.220;9.884;2023-05-12T05:29:32;100962.94;;;13.91;100.00
16690;BME280;8458;52.220;9.884;2023-05-12T05:31:58;100950.94;;;13.95;100.00
16690;BME280;8458;52.220;9.884;2023-05-12T05:34:25;100951.81;;;13.96;100.00
16690;BME280;8458;52.220;9.884;2023-05-12T05:36:51;100967.97;;;13.99;100.00
16690;BME280;8458;52.220;9.884;2023-05-12T05:39:18;100966.25;;;14.03;100.00
16690;BME280;8458;52.220;9.884;2023-05-12T05:41:45;100971.28;;;14.01;100.00
16690;BME280;8458;52.220;9.884;2023-05-12T05:44:13;100968.50;;;14.01;100.00
16690;BME280;8458;52.220;9.884;2023-05-12T05:46:39;100962.38;;;14.04;100.00
16690;BME280;8458;52.220;9.884;2023-05-12T05:49:06;100966.28;;;14.08;100.00
16690;BME280;8458;52.220;9.884;2023-05-12T05:51:32;100963.47;;;14.13;100.00
16690;BME280;8458;52.220;9.884;2023-05-12T05:53:59;100972.13;;;14.12;100.00
16690;BME280;8458;52.220;9.884;2023-05-12T05:56:25;100971.28;;;14.11;100.00
16690;BME280;8458;52.220;9.884;2023-05-12T05:58:52;100977.94;;;14.15;100.00
16690;BME280;8458;52.220;9.884;2023-05-12T06:01:19;100979.06;;;14.09;100.00
16690;BME280;8458;52.220;9.884;2023-05-12T06:03:46;100979.06;;;14.09;100.00
16690;BME280;8458;52.220;9.884;2023-05-12T06:06:12;100983.00;;;14.08;100.00
16690;BME280;8458;52.220;9.884;2023-05-12T06:08:39;100982.16;;;14.13;100.00
16690;BME280;8458;52.220;9.884;2023-05-12T06:11:05;100981.84;;;14.20;100.00
16690;BME280;8458;52.220;9.884;2023-05-12T06:13:32;100979.63;;;14.22;100.00
16690;BME280;8458;52.220;9.884;2023-05-12T06:15:58;100982.41;;;14.27;100.00
16690;BME280;8458;52.220;9.884;2023-05-12T06:18:26;100984.06;;;14.33;100.00
16690;BME280;8458;52.220;9.884;2023-05-12T06:20:52;100983.50;;;14.36;100.00
16690;BME280;8458;52.220;9.884;2023-05-12T06:23:19;100995.22;;;14.38;100.00
16690;BME280;8458;52.220;9.884;2023-05-12T06:25:47;100999.69;;;14.39;100.00
16690;BME280;8458;52.220;9.884;2023-05-12T06:28:13;100996.59;;;14.41;100.00
16690;BME280;8458;52.220;9.884;2023-05-12T06:30:40;100995.19;;;14.43;100.00
16690;BME280;8458;52.220;9.884;2023-05-12T06:33:06;101009.13;;;14.48;100.00
16690;BME280;8458;52.220;9.884;2023-05-12T06:35:34;101003.56;;;14.48;100.00
16690;BME280;8458;52.220;9.884;2023-05-12T06:38:01;101002.44;;;14.44;100.00
16690;BME280;8458;52.220;9.884;2023-05-12T06:40:27;101010.78;;;14.49;100.00
16690;BME280;8458;52.220;9.884;2023-05-12T06:42:53;101009.13;;;14.53;100.00
16690;BME280;8458;52.220;9.884;2023-05-12T06:45:20;100999.63;;;14.49;100.00
16690;BME280;8458;52.220;9.884;2023-05-12T06:47:47;100992.97;;;14.45;100.00
16690;BME280;8458;52.220;9.884;2023-05-12T06:50:14;100997.97;;;14.48;100.00
16690;BME280;8458;52.220;9.884;2023-05-12T06:52:42;100995.72;;;14.50;100.00
16690;BME280;8458;52.220;9.884;2023-05-12T06:55:09;101003.81;;;14.52;100.00
16690;BME280;8458;52.220;9.884;2023-05-12T06:57:35;101008.25;;;14.58;100.00
16690;BME280;8458;52.220;9.884;2023-05-12T07:00:02;101014.66;;;14.64;100.00
16690;BME280;8458;52.220;9.884;2023-05-12T07:02:29;101021.09;;;14.69;100.00
16690;BME280;8458;52.220;9.884;2023-05-12T07:04:55;101030.28;;;14.75;100.00
16690;BME280;8458;52.220;9.884;2023-05-12T07:07:22;101023.59;;;14.71;100.00
16690;BME280;8458;52.220;9.884;2023-05-12T07:09:50;101019.41;;;14.74;100.00
16690;BME280;8458;52.220;9.884;2023-05-12T07:12:16;101011.59;;;14.70;100.00
16690;BME280;8458;52.220;9.884;2023-05-12T07:14:43;101021.63;;;14.72;100.00
16690;BME280;8458;52.220;9.884;2023-05-12T07:17:09;101009.34;;;14.73;100.00
16690;BME280;8458;52.220;9.884;2023-05-12T07:19:36;101020.50;;;14.73;100.00
16690;BME280;8458;52.220;9.884;2023-05-12T07:22:04;101018.00;;;14.71;100.00
16690;BME280;8458;52.220;9.884;2023-05-12T07:24:30;101009.63;;;14.71;100.00
16690;BME280;8458;52.220;9.884;2023-05-12T07:26:58;101015.19;;;14.76;100.00
16690;BME280;8458;52.220;9.884;2023-05-12T07:29:25;101015.19;;;14.81;100.00
16690;BME280;8458;52.220;9.884;2023-05-12T07:31:51;101021.84;;;14.91;100.00
16690;BME280;8458;52.220;9.884;2023-05-12T07:34:18;101017.06;;;14.96;100.00
16690;BME280;8458;52.220;9.884;2023-05-12T07:36:44;101021.25;;;14.99;100.00
16690;BME280;8458;52.220;9.884;2023-05-12T07:39:11;101018.13;;;15.05;100.00
16690;BME280;8458;52.220;9.884;2023-05-12T07:41:39;101021.75;;;15.11;100.00
16690;BME280;8458;52.220;9.884;2023-05-12T07:44:07;101025.34;;;15.17;100.00
16690;BME280;8458;52.220;9.884;2023-05-12T07:46:34;101025.59;;;15.20;100.00
16690;BME280;8458;52.220;9.884;2023-05-12T07:49:00;101017.19;;;15.26;100.00
16690;BME280;8458;52.220;9.884;2023-05-12T07:51:27;101023.84;;;15.35;100.00
16690;BME280;8458;52.220;9.884;2023-05-12T07:53:53;101018.25;;;15.35;100.00
16690;BME280;8458;52.220;9.884;2023-05-12T07:56:22;101015.16;;;15.41;100.00
16690;BME280;8458;52.220;9.884;2023-05-12T07:58:48;101014.56;;;15.45;100.00
16690;BME280;8458;52.220;9.884;2023-05-12T08:01:16;101021.50;;;15.52;100.00
16690;BME280;8458;52.220;9.884;2023-05-12T08:03:43;101018.66;;;15.57;100.00
16690;BME280;8458;52.220;9.884;2023-05-12T08:06:10;101020.00;;;15.65;100.00
16690;BME280;8458;52.220;9.884;2023-05-12T08:08:36;101024.97;;;15.73;100.00
16690;BME280;8458;52.220;9.884;2023-05-12T08:11:03;101023.84;;;15.80;100.00
16690;BME280;8458;52.220;9.884;2023-05-12T08:13:29;101022.38;;;15.87;100.00
16690;BME280;8458;52.220;9.884;2023-05-12T08:15:56;101029.88;;;15.92;100.00
16690;BME280;8458;52.220;9.884;2023-05-12T08:18:24;101029.53;;;15.99;100.00
16690;BME280;8458;52.220;9.884;2023-05-12T08:20:50;101023.88;;;16.09;100.00
16690;BME280;8458;52.220;9.884;2023-05-12T08:23:17;101021.88;;;16.15;100.00
16690;BME280;8458;52.220;9.884;2023-05-12T08:25:43;101022.59;;;16.25;100.00
16690;BME280;8458;52.220;9.884;2023-05-12T08:28:13;101028.06;;;16.36;96.70
16690;BME280;8458;52.220;9.884;2023-05-12T08:30:40;101022.16;;;16.42;98.29
16690;BME280;8458;52.220;9.884;2023-05-12T08:33:06;101026.50;;;16.54;95.37
16690;BME280;8458;52.220;9.884;2023-05-12T08:35:34;101016.53;;;16.66;97.70
16690;BME280;8458;52.220;9.884;2023-05-12T08:38:01;101017.50;;;16.81;95.69
16690;BME280;8458;52.220;9.884;2023-05-12T08:40:30;101016.91;;;16.84;95.50
16690;BME280;8458;52.220;9.884;2023-05-12T08:43:03;101022.06;;;17.01;95.22
16690;BME280;8458;52.220;9.884;2023-05-12T08:45:35;101014.41;;;17.07;91.45
16690;BME280;8458;52.220;9.884;2023-05-12T08:48:03;101022.59;;;17.22;94.13
16690;BME280;8458;52.220;9.884;2023-05-12T08:50:31;101012.06;;;17.33;93.21
16690;BME280;8458;52.220;9.884;2023-05-12T08:53:02;101022.59;;;17.41;91.19
16690;BME280;8458;52.220;9.884;2023-05-12T08:55:29;101023.88;;;17.49;90.28
16690;BME280;8458;52.220;9.884;2023-05-12T08:57:57;101026.06;;;17.52;89.96
16690;BME280;8458;52.220;9.884;2023-05-12T09:00:25;101017.53;;;17.62;90.25
16690;BME280;8458;52.220;9.884;2023-05-12T09:02:56;101022.88;;;17.78;86.15
16690;BME280;8458;52.220;9.884;2023-05-12T09:05:25;101027.75;;;17.91;85.92
16690;BME280;8458;52.220;9.884;2023-05-12T09:07:54;101027.34;;;17.98;80.46
16690;BME280;8458;52.220;9.884;2023-05-12T09:10:23;101017.41;;;18.05;79.70
16690;BME280;8458;52.220;9.884;2023-05-12T09:12:53;101026.16;;;18.18;83.33
16690;BME280;8458;52.220;9.884;2023-05-12T09:15:26;101030.44;;;18.29;82.64
16690;BME280;8458;52.220;9.884;2023-05-12T09:17:53;101020.16;;;18.38;85.34
16690;BME280;8458;52.220;9.884;2023-05-12T09:20:19;101028.72;;;18.61;86.63
16690;BME280;8458;52.220;9.884;2023-05-12T09:22:46;101027.88;;;18.74;83.97
16690;BME280;8458;52.220;9.884;2023-05-12T09:25:17;101028.31;;;18.81;81.15
16690;BME280;8458;52.220;9.884;2023-05-12T09:27:47;101027.91;;;19.02;81.53
16690;BME280;8458;52.220;9.884;2023-05-12T09:30:14;101033.72;;;19.20;80.64
16690;BME280;8458;52.220;9.884;2023-05-12T09:32:41;101034.72;;;19.38;80.69
16690;BME280;8458;52.220;9.884;2023-05-12T09:35:09;101027.78;;;19.58;78.49
16690;BME280;8458;52.220;9.884;2023-05-12T09:37:38;101036.38;;;19.75;76.81
16690;BME280;8458;52.220;9.884;2023-05-12T09:40:06;101042.28;;;19.87;75.78
16690;BME280;8458;52.220;9.884;2023-05-12T09:42:34;101035.13;;;20.04;74.35
16690;BME280;8458;52.220;9.884;2023-05-12T09:45:02;101036.50;;;20.15;74.19
16690;BME280;8458;52.220;9.884;2023-05-12T09:47:36;101035.47;;;20.34;75.50
16690;BME280;8458;52.220;9.884;2023-05-12T09:50:05;101035.69;;;20.46;69.36
16690;BME280;8458;52.220;9.884;2023-05-12T09:52:35;101030.94;;;20.55;71.57
16690;BME280;8458;52.220;9.884;2023-05-12T09:55:05;101034.28;;;20.57;68.24
16690;BME280;8458;52.220;9.884;2023-05-12T09:57:34;101034.13;;;20.63;68.96
16690;BME280;8458;52.220;9.884;2023-05-12T10:00:04;101039.63;;;20.68;70.05
16690;BME280;8458;52.220;9.884;2023-05-12T10:02:32;101037.69;;;20.68;66.54
16690;BME280;8458;52.220;9.884;2023-05-12T10:05:01;101039.53;;;20.73;66.88
16690;BME280;8458;52.220;9.884;2023-05-12T10:07:31;101036.88;;;20.76;66.77
16690;BME280;8458;52.220;9.884;2023-05-12T10:09:59;101034.88;;;20.77;65.37
16690;BME280;8458;52.220;9.884;2023-05-12T10:12:29;101039.19;;;20.83;66.43
16690;BME280;8458;52.220;9.884;2023-05-12T10:14:56;101035.72;;;20.77;61.79
16690;BME280;8458;52.220;9.884;2023-05-12T10:17:25;101037.69;;;20.77;65.41
16690;BME280;8458;52.220;9.884;2023-05-12T10:19:52;101034.38;;;20.75;61.69
16690;BME280;8458;52.220;9.884;2023-05-12T10:22:20;101040.16;;;20.70;61.01
16690;BME280;8458;52.220;9.884;2023-05-12T10:24:47;101035.34;;;20.70;60.21
16690;BME280;8458;52.220;9.884;2023-05-12T10:27:14;101035.72;;;20.77;62.53
16690;BME280;8458;52.220;9.884;2023-05-12T10:29:41;101039.19;;;20.83;58.88
16690;BME280;8458;52.220;9.884;2023-05-12T10:32:09;101042.22;;;20.95;61.88
16690;BME280;8458;52.220;9.884;2023-05-12T10:34:39;101039.94;;;20.98;57.40
16690;BME280;8458;52.220;9.884;2023-05-12T10:37:08;101036.47;;;21.01;56.32
16690;BME280;8458;52.220;9.884;2023-05-12T10:39:35;101032.66;;;21.14;61.99
16690;BME280;8458;52.220;9.884;2023-05-12T10:42:05;101035.00;;;21.29;59.75
16690;BME280;8458;52.220;9.884;2023-05-12T10:44:32;101028.53;;;21.38;60.07
16690;BME280;8458;52.220;9.884;2023-05-12T10:46:59;101035.69;;;21.44;56.17
16690;BME280;8458;52.220;9.884;2023-05-12T10:49:33;101035.41;;;21.54;55.44
16690;BME280;8458;52.220;9.884;2023-05-12T10:52:05;101036.91;;;21.69;52.67
16690;BME280;8458;52.220;9.884;2023-05-12T10:54:38;101034.25;;;21.81;57.08
16690;BME280;8458;52.220;9.884;2023-05-12T10:57:11;101034.56;;;21.89;54.34
16690;BME280;8458;52.220;9.884;2023-05-12T10:59:46;101041.38;;;21.96;55.00
16690;BME280;8458;52.220;9.884;2023-05-12T11:02:15;101035.72;;;21.96;51.35
16690;BME280;8458;52.220;9.884;2023-05-12T11:04:46;101031.41;;;22.08;53.24
16690;BME280;8458;52.220;9.884;2023-05-12T11:07:18;101036.88;;;22.13;53.95
16690;BME280;8458;52.220;9.884;2023-05-12T11:09:46;101032.69;;;22.19;50.85
16690;BME280;8458;52.220;9.884;2023-05-12T11:12:13;101034.72;;;22.18;49.96
16690;BME280;8458;52.220;9.884;2023-05-12T11:14:41;101030.06;;;22.14;48.85
16690;BME280;8458;52.220;9.884;2023-05-12T11:17:08;101030.56;;;22.16;51.99
16690;BME280;8458;52.220;9.884;2023-05-12T11:19:35;101029.69;;;22.24;53.83
16690;BME280;8458;52.220;9.884;2023-05-12T11:22:04;101030.03;;;22.31;52.35
16690;BME280;8458;52.220;9.884;2023-05-12T11:24:32;101029.66;;;22.42;54.22
16690;BME280;8458;52.220;9.884;2023-05-12T11:26:58;101029.97;;;22.49;52.68
16690;BME280;8458;52.220;9.884;2023-05-12T11:29:25;101030.19;;;22.44;50.81
16690;BME280;8458;52.220;9.884;2023-05-12T11:31:52;101027.38;;;22.35;50.88
16690;BME280;8458;52.220;9.884;2023-05-12T11:34:20;101033.34;;;22.33;54.47
16690;BME280;8458;52.220;9.884;2023-05-12T11:36:47;101038.59;;;22.52;54.55
16690;BME280;8458;52.220;9.884;2023-05-12T11:39:15;101025.47;;;22.56;51.49
16690;BME280;8458;52.220;9.884;2023-05-12T11:41:43;101019.25;;;22.72;48.77
16690;BME280;8458;52.220;9.884;2023-05-12T11:44:17;101030.53;;;22.81;51.38
16690;BME280;8458;52.220;9.884;2023-05-12T11:46:55;101034.66;;;22.83;48.39
16690;BME280;8458;52.220;9.884;2023-05-12T11:49:21;101035.00;;;22.82;49.66
16690;BME280;8458;52.220;9.884;2023-05-12T11:51:50;101029.88;;;22.75;49.93
16690;BME280;8458;52.220;9.884;2023-05-12T11:54:17;101028.31;;;22.86;49.06
16690;BME280;8458;52.220;9.884;2023-05-12T11:56:47;101031.22;;;22.78;46.94
16690;BME280;8458;52.220;9.884;2023-05-12T11:59:25;101026.94;;;22.63;47.36
16690;BME280;8458;52.220;9.884;2023-05-12T12:01:51;101038.47;;;22.49;46.86
16690;BME280;8458;52.220;9.884;2023-05-12T12:04:18;101034.19;;;22.34;47.08
16690;BME280;8458;52.220;9.884;2023-05-12T12:06:45;101034.19;;;22.16;48.30
16690;BME280;8458;52.220;9.884;2023-05-12T12:09:12;101034.38;;;22.02;47.44
16690;BME280;8458;52.220;9.884;2023-05-12T12:11:38;101038.38;;;21.84;50.21
16690;BME280;8458;52.220;9.884;2023-05-12T12:14:06;101040.06;;;21.67;48.64
16690;BME280;8458;52.220;9.884;2023-05-12T12:16:33;101036.75;;;21.83;51.52
16690;BME280;8458;52.220;9.884;2023-05-12T12:18:59;101039.91;;;21.81;50.19
16690;BME280;8458;52.220;9.884;2023-05-12T12:21:25;101038.91;;;21.77;50.15
16690;BME280;8458;52.220;9.884;2023-05-12T12:23:52;101039.06;;;21.81;49.61
16690;BME280;8458;52.220;9.884;2023-05-12T12:26:18;101042.19;;;21.79;48.01
16690;BME280;8458;52.220;9.884;2023-05-12T12:28:47;101039.25;;;21.84;48.61
16690;BME280;8458;52.220;9.884;2023-05-12T12:31:15;101029.25;;;21.96;48.72
16690;BME280;8458;52.220;9.884;2023-05-12T12:33:42;101037.72;;;22.05;48.48
16690;BME280;8458;52.220;9.884;2023-05-12T12:36:09;101027.72;;;22.16;47.89
16690;BME280;8458;52.220;9.884;2023-05-12T12:38:35;101026.88;;;22.33;48.85
16690;BME280;8458;52.220;9.884;2023-05-12T12:41:02;101025.81;;;22.55;47.67
16690;BME280;8458;52.220;9.884;2023-05-12T12:43:29;101030.59;;;22.63;45.39
16690;BME280;8458;52.220;9.884;2023-05-12T12:45:55;101022.91;;;22.72;44.13
16690;BME280;8458;52.220;9.884;2023-05-12T12:48:23;101028.31;;;22.86;43.91
16690;BME280;8458;52.220;9.884;2023-05-12T12:50:51;101026.22;;;23.04;46.33
16690;BME280;8458;52.220;9.884;2023-05-12T12:53:17;101023.06;;;23.15;45.81